createdAt,value
2023-04-08T00:00:50.041Z,14.73
2023-04-08T00:03:17.256Z,13.65
2023-04-08T00:05:44.340Z,13.68
2023-04-08T00:08:11.479Z,14.43
2023-04-08T00:10:38.635Z,15.40
2023-04-08T00:13:06.777Z,16.13
2023-04-08T00:15:33.757Z,14.50
2023-04-08T00:18:01.337Z,13.20
2023-04-08T00:20:28.373Z,15.15
2023-04-08T00:22:55.370Z,14.32
2023-04-08T00:25:25.373Z,15.43
2023-04-08T00:27:52.832Z,14.88
2023-04-08T00:30:20.162Z,13.05
2023-04-08T00:32:47.184Z,15.02
2023-04-08T00:35:16.292Z,13.65
2023-04-08T00:37:43.721Z,15.85
2023-04-08T00:40:11.113Z,16.50
2023-04-08T00:42:38.812Z,17.20
2023-04-08T00:45:06.493Z,14.65
2023-04-08T00:47:37.916Z,13.80
2023-04-08T00:50:07.272Z,13.45
2023-04-08T00:52:36.516Z,15.40
2023-04-08T00:55:03.745Z,14.02
2023-04-08T00:57:30.756Z,13.82
2023-04-08T00:59:57.741Z,14.18
2023-04-08T01:02:54.271Z,12.60
2023-04-08T01:05:27.539Z,14.35
2023-04-08T01:07:54.730Z,13.25
2023-04-08T01:10:26.543Z,13.90
2023-04-08T01:12:59.946Z,12.35
2023-04-08T01:15:29.753Z,11.18
2023-04-08T01:17:59.959Z,12.13
2023-04-08T01:20:28.915Z,11.20
2023-04-08T01:23:14.922Z,13.15
2023-04-08T01:25:53.293Z,11.25
2023-04-08T01:28:24.683Z,11.07
2023-04-08T01:30:52.559Z,11.40
2023-04-08T01:33:19.979Z,11.35
2023-04-08T01:35:47.212Z,11.98
2023-04-08T01:38:20.933Z,11.07
2023-04-08T01:40:49.749Z,11.32
2023-04-08T01:43:18.867Z,10.73
2023-04-08T01:45:47.709Z,10.52
2023-04-08T01:48:16.805Z,12.63
2023-04-08T01:50:45.710Z,10.45
2023-04-08T01:53:14.009Z,8.93
2023-04-08T01:55:42.537Z,9.10
2023-04-08T01:58:12.607Z,9.10
2023-04-08T02:00:42.863Z,9.43
2023-04-08T02:03:13.022Z,8.32
2023-04-08T02:05:41.043Z,8.18
2023-04-08T02:08:10.334Z,7.65
2023-04-08T02:10:37.324Z,8.40
2023-04-08T02:13:05.462Z,9.45
2023-04-08T02:15:36.539Z,7.53
2023-04-08T02:18:15.614Z,7.63
2023-04-08T02:20:53.793Z,9.13
2023-04-08T02:23:25.470Z,7.75
2023-04-08T02:25:56.792Z,7.70
2023-04-08T02:28:29.168Z,7.53
2023-04-08T02:31:00.844Z,9.45
2023-04-08T02:33:28.590Z,8.85
2023-04-08T02:35:57.212Z,6.40
2023-04-08T02:38:24.479Z,6.38
2023-04-08T02:40:52.722Z,8.25
2023-04-08T02:43:19.691Z,7.22
2023-04-08T02:45:46.914Z,7.80
2023-04-08T02:48:15.442Z,7.00
2023-04-08T02:50:42.418Z,7.60
2023-04-08T02:53:09.846Z,7.60
2023-04-08T02:55:38.055Z,7.45
2023-04-08T02:58:05.459Z,7.88
2023-04-08T03:00:33.967Z,5.95
2023-04-08T03:03:01.945Z,6.05
2023-04-08T03:05:29.088Z,6.60
2023-04-08T03:07:56.097Z,7.40
2023-04-08T03:10:23.100Z,6.00
2023-04-08T03:12:51.616Z,5.90
2023-04-08T03:15:19.316Z,5.95
2023-04-08T03:17:46.408Z,8.13
2023-04-08T03:20:13.393Z,5.38
2023-04-08T03:22:40.436Z,6.65
2023-04-08T03:25:07.882Z,6.03
2023-04-08T03:27:34.973Z,7.93
2023-04-08T03:30:01.858Z,5.78
2023-04-08T03:32:32.894Z,7.00
2023-04-08T03:34:59.838Z,6.57
2023-04-08T03:37:27.021Z,6.53
2023-04-08T03:39:55.431Z,7.43
2023-04-08T03:42:22.783Z,6.90
2023-04-08T03:44:49.802Z,6.22
2023-04-08T03:47:17.038Z,7.10
2023-04-08T03:49:43.968Z,6.88
2023-04-08T03:52:10.910Z,7.30
2023-04-08T03:54:38.136Z,6.97
2023-04-08T03:57:05.022Z,9.00
2023-04-08T03:59:33.994Z,6.88
2023-04-08T04:02:01.020Z,10.65
2023-04-08T04:04:28.122Z,11.20
2023-04-08T04:06:56.288Z,9.85
2023-04-08T04:09:25.000Z,9.48
2023-04-08T04:11:52.628Z,9.52
2023-04-08T04:14:19.580Z,9.90
2023-04-08T04:16:46.500Z,9.20
2023-04-08T04:19:13.748Z,8.00
2023-04-08T04:21:41.032Z,7.03
2023-04-08T04:24:08.577Z,8.57
2023-04-08T04:26:36.166Z,11.30
2023-04-08T04:29:04.658Z,10.20
2023-04-08T04:31:32.848Z,9.68
2023-04-08T04:34:00.861Z,12.00
2023-04-08T04:36:28.278Z,11.20
2023-04-08T04:38:57.241Z,9.48
2023-04-08T04:41:24.790Z,11.57
2023-04-08T04:43:51.796Z,10.25
2023-04-08T04:46:18.777Z,10.60
2023-04-08T04:48:45.788Z,11.65
2023-04-08T04:51:12.777Z,11.98
2023-04-08T04:53:39.748Z,9.43
2023-04-08T04:56:06.966Z,15.38
2023-04-08T04:58:36.415Z,12.93
2023-04-08T05:01:03.750Z,13.82
2023-04-08T05:03:31.751Z,13.63
2023-04-08T05:05:58.772Z,15.75
2023-04-08T05:08:27.720Z,13.90
2023-04-08T05:10:56.571Z,13.65
2023-04-08T05:13:23.572Z,16.35
2023-04-08T05:15:50.651Z,13.90
2023-04-08T05:18:17.786Z,15.00
2023-04-08T05:20:44.906Z,16.33
2023-04-08T05:23:11.911Z,14.70
2023-04-08T05:25:38.912Z,14.95
2023-04-08T05:28:06.563Z,14.25
2023-04-08T05:30:33.604Z,13.98
2023-04-08T05:33:00.995Z,16.42
2023-04-08T05:35:28.968Z,18.27
2023-04-08T05:37:56.246Z,16.33
2023-04-08T05:40:24.956Z,17.52
2023-04-08T05:42:54.250Z,19.80
2023-04-08T05:45:21.556Z,18.98
2023-04-08T05:47:49.174Z,23.50
2023-04-08T05:50:20.134Z,20.88
2023-04-08T05:52:48.795Z,19.05
2023-04-08T05:55:16.753Z,19.70
2023-04-08T05:57:43.734Z,23.73
2023-04-08T06:00:12.662Z,23.50
2023-04-08T06:02:40.054Z,25.38
2023-04-08T06:05:07.441Z,26.45
2023-04-08T06:07:34.702Z,24.75
2023-04-08T06:10:03.499Z,25.58
2023-04-08T06:12:30.790Z,32.78
2023-04-08T06:14:59.796Z,28.58
2023-04-08T06:17:27.347Z,28.02
2023-04-08T06:19:55.788Z,22.70
2023-04-08T06:22:23.280Z,26.77
2023-04-08T06:24:50.317Z,25.10
2023-04-08T06:27:17.372Z,26.58
2023-04-08T06:29:44.684Z,23.23
2023-04-08T06:32:13.660Z,23.02
2023-04-08T06:34:41.203Z,27.30
2023-04-08T06:37:08.255Z,22.77
2023-04-08T06:39:35.377Z,20.88
2023-04-08T06:42:02.822Z,23.25
2023-04-08T06:44:46.538Z,20.92
2023-04-08T06:47:13.647Z,20.98
2023-04-08T06:49:41.513Z,21.85
2023-04-08T06:52:09.593Z,24.90
2023-04-08T06:54:36.584Z,25.55
2023-04-08T06:57:04.814Z,25.02
2023-04-08T06:59:31.880Z,23.95
2023-04-08T07:01:58.973Z,23.25
2023-04-08T07:04:27.654Z,26.13
2023-04-08T07:06:57.968Z,26.17
2023-04-08T07:09:25.010Z,22.23
2023-04-08T07:11:53.844Z,21.80
2023-04-08T07:14:20.841Z,22.17
2023-04-08T07:16:47.953Z,21.55
2023-04-08T07:19:14.976Z,20.38
2023-04-08T07:21:42.247Z,19.42
2023-04-08T07:24:09.233Z,18.42
2023-04-08T07:26:36.514Z,17.45
2023-04-08T07:29:03.475Z,17.33
2023-04-08T07:31:30.599Z,16.75
2023-04-08T07:33:57.586Z,12.80
2023-04-08T07:36:24.584Z,11.82
2023-04-08T07:38:52.250Z,12.80
2023-04-08T07:41:19.568Z,13.27
2023-04-08T07:43:47.083Z,11.38
2023-04-08T07:46:17.711Z,11.88
2023-04-08T07:48:45.237Z,9.93
2023-04-08T07:51:12.316Z,9.88
2023-04-08T07:53:40.672Z,9.65
2023-04-08T07:56:12.704Z,8.68
2023-04-08T07:58:40.735Z,9.77
2023-04-08T08:01:19.088Z,10.77
2023-04-08T08:03:49.630Z,9.93
2023-04-08T08:06:17.682Z,7.57
2023-04-08T08:08:44.818Z,6.80
2023-04-08T08:11:11.857Z,8.88
2023-04-08T08:13:38.972Z,8.75
2023-04-08T08:16:09.588Z,8.82
2023-04-08T08:18:37.115Z,7.40
2023-04-08T08:21:04.818Z,7.93
2023-04-08T08:23:34.745Z,8.07
2023-04-08T08:26:06.487Z,7.05
2023-04-08T08:28:34.114Z,8.73
2023-04-08T08:31:01.160Z,10.07
2023-04-08T08:33:28.444Z,8.02
2023-04-08T08:35:56.132Z,9.38
2023-04-08T08:38:23.273Z,8.68
2023-04-08T08:40:56.337Z,11.65
2023-04-08T08:43:27.315Z,10.77
2023-04-08T08:45:54.785Z,9.48
2023-04-08T08:48:21.878Z,11.25
2023-04-08T08:50:48.760Z,11.82
2023-04-08T08:53:16.921Z,10.82
2023-04-08T08:56:15.774Z,10.05
2023-04-08T08:58:31.066Z,10.68
2023-04-08T09:00:57.993Z,11.70
2023-04-08T09:03:30.116Z,11.75
2023-04-08T09:06:00.045Z,10.88
2023-04-08T09:08:28.273Z,11.55
2023-04-08T09:10:56.363Z,10.43
2023-04-08T09:13:24.844Z,11.45
2023-04-08T09:16:06.287Z,10.27
2023-04-08T09:18:34.418Z,11.52
2023-04-08T09:21:02.618Z,12.07
2023-04-08T09:23:46.873Z,13.23
2023-04-08T09:26:18.296Z,10.13
2023-04-08T09:29:18.247Z,11.18
2023-04-08T09:32:01.915Z,12.38
2023-04-08T09:34:29.975Z,10.85
2023-04-08T09:36:57.040Z,10.45
2023-04-08T09:39:24.301Z,12.73
2023-04-08T09:41:53.287Z,11.90
2023-04-08T09:44:22.124Z,11.07
2023-04-08T09:46:52.818Z,11.32
2023-04-08T09:49:27.347Z,11.93
2023-04-08T09:52:32.431Z,18.13
2023-04-08T09:55:09.404Z,15.20
2023-04-08T09:57:58.595Z,20.13
2023-04-08T10:00:32.455Z,15.10
2023-04-08T10:03:22.395Z,13.25
2023-04-08T10:05:52.859Z,13.52
2023-04-08T10:08:21.270Z,14.43
2023-04-08T10:10:48.626Z,12.98
2023-04-08T10:13:16.072Z,16.75
2023-04-08T10:15:43.395Z,14.50
2023-04-08T10:18:10.316Z,14.45
2023-04-08T10:20:37.570Z,16.55
2023-04-08T10:23:10.749Z,18.05
2023-04-08T10:25:38.447Z,15.50
2023-04-08T10:28:12.405Z,17.02
2023-04-08T10:30:42.083Z,16.60
2023-04-08T10:33:15.839Z,15.00
2023-04-08T10:35:47.756Z,17.50
2023-04-08T10:38:16.128Z,13.73
2023-04-08T10:40:45.738Z,14.93
2023-04-08T10:43:14.705Z,19.05
2023-04-08T10:45:47.957Z,12.90
2023-04-08T10:48:19.908Z,10.88
2023-04-08T10:51:00.264Z,12.32
2023-04-08T10:53:33.714Z,12.23
2023-04-08T10:56:13.483Z,15.85
2023-04-08T10:58:52.194Z,17.80
2023-04-08T11:01:19.886Z,18.50
2023-04-08T11:03:47.647Z,16.65
2023-04-08T11:06:14.950Z,13.35
2023-04-08T11:08:42.378Z,12.48
2023-04-08T11:11:11.689Z,10.90
2023-04-08T11:13:52.946Z,11.43
2023-04-08T11:16:22.989Z,15.48
2023-04-08T11:18:51.197Z,12.45
2023-04-08T11:21:18.494Z,14.60
2023-04-08T11:23:45.699Z,12.88
2023-04-08T11:26:15.147Z,17.85
2023-04-08T11:28:42.277Z,16.05
2023-04-08T11:31:09.793Z,25.17
2023-04-08T11:33:37.175Z,30.40
2023-04-08T11:36:04.855Z,18.48
2023-04-08T11:38:32.120Z,16.55
2023-04-08T11:41:00.102Z,16.13
2023-04-08T11:43:28.787Z,15.43
2023-04-08T11:45:55.940Z,16.27
2023-04-08T11:48:25.031Z,23.75
2023-04-08T11:51:12.691Z,23.52
2023-04-08T11:53:39.714Z,14.27
2023-04-08T11:56:47.118Z,13.18
2023-04-08T11:59:14.281Z,15.23
2023-04-08T12:01:41.636Z,19.15
2023-04-08T12:04:10.530Z,14.73
2023-04-08T12:06:37.809Z,17.00
2023-04-08T12:09:04.788Z,19.33
2023-04-08T12:11:32.074Z,85.72
2023-04-08T12:13:59.097Z,41.08
2023-04-08T12:16:26.532Z,18.35
2023-04-08T12:18:54.885Z,14.85
2023-04-08T12:21:22.618Z,14.75
2023-04-08T12:23:50.024Z,14.50
2023-04-08T12:26:17.325Z,14.80
2023-04-08T12:28:44.294Z,17.25
2023-04-08T12:31:11.560Z,15.77
2023-04-08T12:33:38.545Z,16.10
2023-04-08T12:36:05.663Z,21.13
2023-04-08T12:38:33.793Z,41.10
2023-04-08T12:41:01.008Z,19.92
2023-04-08T12:43:28.117Z,20.67
2023-04-08T12:45:55.326Z,14.52
2023-04-08T12:48:22.420Z,21.55
2023-04-08T12:50:49.466Z,12.65
2023-04-08T12:53:16.454Z,10.88
2023-04-08T12:55:44.658Z,9.77
2023-04-08T12:58:12.035Z,13.85
2023-04-08T13:00:39.036Z,12.60
2023-04-08T13:03:06.624Z,12.63
2023-04-08T13:05:43.081Z,12.40
2023-04-08T13:08:14.596Z,12.18
2023-04-08T13:10:43.783Z,12.85
2023-04-08T13:13:11.816Z,13.35
2023-04-08T13:15:38.849Z,15.60
2023-04-08T13:18:06.027Z,16.75
2023-04-08T13:20:33.704Z,16.67
2023-04-08T13:23:00.971Z,17.63
2023-04-08T13:25:28.049Z,24.33
2023-04-08T13:27:55.226Z,16.25
2023-04-08T13:30:22.442Z,14.95
2023-04-08T13:32:49.440Z,15.30
2023-04-08T13:35:16.408Z,15.75
2023-04-08T13:37:43.504Z,15.50
2023-04-08T13:40:10.921Z,15.38
2023-04-08T13:42:37.896Z,15.48
2023-04-08T13:45:05.348Z,15.27
2023-04-08T13:47:32.326Z,16.33
2023-04-08T13:49:59.341Z,18.98
2023-04-08T13:52:26.398Z,16.75
2023-04-08T13:54:53.418Z,18.35
2023-04-08T13:57:21.115Z,19.45
2023-04-08T13:59:48.110Z,19.67
2023-04-08T14:02:15.068Z,21.05
2023-04-08T14:04:43.281Z,17.67
2023-04-08T14:07:10.522Z,18.00
2023-04-08T14:09:37.574Z,21.92
2023-04-08T14:12:04.697Z,16.77
2023-04-08T14:14:32.389Z,20.92
2023-04-08T14:16:59.439Z,19.17
2023-04-08T14:19:26.853Z,20.80
2023-04-08T14:21:54.463Z,18.60
2023-04-08T14:24:23.739Z,23.83
2023-04-08T14:26:50.784Z,26.95
2023-04-08T14:29:17.793Z,24.30
2023-04-08T14:31:44.765Z,22.25
2023-04-08T14:34:11.715Z,19.70
2023-04-08T14:36:38.731Z,19.13
2023-04-08T14:39:05.823Z,19.60
2023-04-08T14:41:32.896Z,19.48
2023-04-08T14:43:59.984Z,19.65
2023-04-08T14:46:28.878Z,20.13
2023-04-08T14:48:58.817Z,16.77
2023-04-08T14:51:25.966Z,18.33
2023-04-08T14:53:53.039Z,17.90
2023-04-08T14:56:20.140Z,22.27
2023-04-08T14:58:47.224Z,19.88
2023-04-08T15:01:16.861Z,16.42
2023-04-08T15:03:45.226Z,19.10
2023-04-08T15:06:16.932Z,17.40
2023-04-08T15:08:44.339Z,17.45
2023-04-08T15:11:13.838Z,15.98
2023-04-08T15:13:41.411Z,16.45
2023-04-08T15:16:08.416Z,18.25
2023-04-08T15:18:36.294Z,17.85
2023-04-08T15:21:03.552Z,17.02
2023-04-08T15:23:30.612Z,18.02
2023-04-08T15:25:57.714Z,16.85
2023-04-08T15:28:24.949Z,16.50
2023-04-08T15:30:51.971Z,15.25
2023-04-08T15:33:20.112Z,16.60
2023-04-08T15:35:49.917Z,15.38
2023-04-08T15:38:18.497Z,15.73
2023-04-08T15:40:47.948Z,16.08
2023-04-08T15:43:15.931Z,14.57
2023-04-08T15:45:46.789Z,13.88
2023-04-08T15:48:14.403Z,16.80
2023-04-08T15:50:42.166Z,15.68
2023-04-08T15:53:11.269Z,15.13
2023-04-08T15:55:40.128Z,15.27
2023-04-08T15:58:07.758Z,16.73
2023-04-08T16:00:35.062Z,15.60
2023-04-08T16:03:02.472Z,14.63
2023-04-08T16:05:30.349Z,16.63
2023-04-08T16:07:58.101Z,17.27
2023-04-08T16:11:06.058Z,15.93
2023-04-08T16:13:34.337Z,13.85
2023-04-08T16:16:04.745Z,17.38
2023-04-08T16:18:31.810Z,15.95
2023-04-08T16:20:58.879Z,16.15
2023-04-08T16:23:26.507Z,15.43
2023-04-08T16:26:04.477Z,15.95
2023-04-08T16:28:33.611Z,16.08
2023-04-08T16:31:01.896Z,17.65
2023-04-08T16:33:39.457Z,18.08
2023-04-08T16:36:09.738Z,17.92
2023-04-08T16:38:43.583Z,17.73
2023-04-08T16:41:13.328Z,18.27
2023-04-08T16:43:43.303Z,16.80
2023-04-08T16:46:22.068Z,14.85
2023-04-08T16:48:54.828Z,17.95
2023-04-08T16:51:21.869Z,20.23
2023-04-08T16:53:58.332Z,17.92
2023-04-08T16:56:31.153Z,16.67
2023-04-08T16:59:04.313Z,17.50
2023-04-08T17:01:31.931Z,16.73
2023-04-08T17:04:01.869Z,16.88
2023-04-08T17:06:33.452Z,18.85
2023-04-08T17:09:03.784Z,17.98
2023-04-08T17:11:44.448Z,19.83
2023-04-08T17:14:14.668Z,19.45
2023-04-08T17:16:47.103Z,18.10
2023-04-08T17:19:15.836Z,17.95
2023-04-08T17:21:45.343Z,18.70
2023-04-08T17:24:14.604Z,19.50
2023-04-08T17:26:50.691Z,22.30
2023-04-08T17:29:21.724Z,19.48
2023-04-08T17:31:51.875Z,22.00
2023-04-08T17:34:19.019Z,19.15
2023-04-08T17:36:54.351Z,19.80
2023-04-08T17:39:25.390Z,17.52
2023-04-08T17:41:58.173Z,18.08
2023-04-08T17:44:30.023Z,16.50
2023-04-08T17:47:00.735Z,18.98
2023-04-08T17:49:29.452Z,17.25
2023-04-08T17:51:56.864Z,16.67
2023-04-08T17:54:29.086Z,17.83
2023-04-08T17:57:04.419Z,17.42
2023-04-08T17:59:31.785Z,17.25
2023-04-08T18:02:04.564Z,23.13
2023-04-08T18:04:34.273Z,19.75
2023-04-08T18:07:06.976Z,17.83
2023-04-08T18:09:34.460Z,19.35
2023-04-08T18:12:09.700Z,18.55
2023-04-08T18:14:36.682Z,20.73
2023-04-08T18:17:07.088Z,23.58
2023-04-08T18:19:37.102Z,20.92
2023-04-08T18:22:05.998Z,17.80
2023-04-08T18:24:33.498Z,19.05
2023-04-08T18:27:04.528Z,18.27
2023-04-08T18:29:32.190Z,18.15
2023-04-08T18:31:59.249Z,19.42
2023-04-08T18:34:27.055Z,19.80
2023-04-08T18:36:54.053Z,25.02
2023-04-08T18:39:20.921Z,28.00
2023-04-08T18:41:47.924Z,34.53
2023-04-08T18:44:14.871Z,33.20
2023-04-08T18:46:42.214Z,38.17
2023-04-08T18:49:09.231Z,32.85
2023-04-08T18:51:36.343Z,29.42
2023-04-08T18:54:03.484Z,28.10
2023-04-08T18:56:31.676Z,35.70
2023-04-08T18:58:58.758Z,32.75
2023-04-08T19:01:25.970Z,28.13
2023-04-08T19:03:53.441Z,30.10
2023-04-08T19:06:22.909Z,26.75
2023-04-08T19:08:50.029Z,25.50
2023-04-08T19:11:17.118Z,22.60
2023-04-08T19:13:44.126Z,20.17
2023-04-08T19:16:11.397Z,19.75
2023-04-08T19:18:38.492Z,21.73
2023-04-08T19:21:06.514Z,19.67
2023-04-08T19:23:33.457Z,19.92
2023-04-08T19:26:05.317Z,20.30
2023-04-08T19:28:33.465Z,20.65
2023-04-08T19:31:01.487Z,19.52
2023-04-08T19:33:28.726Z,19.88
2023-04-08T19:35:57.081Z,19.58
2023-04-08T19:38:24.502Z,22.48
2023-04-08T19:40:51.474Z,20.67
2023-04-08T19:43:18.629Z,19.65
2023-04-08T19:45:45.606Z,18.58
2023-04-08T19:48:12.530Z,16.98
2023-04-08T19:50:39.716Z,18.98
2023-04-08T19:53:06.715Z,19.52
2023-04-08T19:55:35.608Z,19.15
2023-04-08T19:58:02.626Z,20.10
2023-04-08T20:00:29.693Z,19.00
2023-04-08T20:02:56.970Z,17.02
2023-04-08T20:05:24.183Z,18.30
2023-04-08T20:07:51.354Z,17.75
2023-04-08T20:10:18.935Z,19.60
2023-04-08T20:12:46.215Z,17.75
2023-04-08T20:15:23.673Z,20.20
2023-04-08T20:17:51.582Z,17.90
2023-04-08T20:20:18.671Z,18.77
2023-04-08T20:22:46.642Z,18.95
2023-04-08T20:25:13.804Z,19.67
2023-04-08T20:27:41.403Z,20.75
2023-04-08T20:30:09.305Z,19.05
2023-04-08T20:32:38.826Z,19.15
2023-04-08T20:35:06.660Z,21.05
2023-04-08T20:37:33.773Z,18.83
2023-04-08T20:40:01.057Z,20.48
2023-04-08T20:42:28.798Z,20.92
2023-04-08T20:44:55.795Z,19.80
2023-04-08T20:47:22.806Z,23.08
2023-04-08T20:49:49.788Z,22.45
2023-04-08T20:52:18.335Z,20.52
2023-04-08T20:54:45.469Z,20.63
2023-04-08T20:57:12.407Z,18.95
2023-04-08T20:59:39.378Z,18.45
2023-04-08T21:02:07.762Z,22.13
2023-04-08T21:04:34.752Z,19.75
2023-04-08T21:07:01.854Z,22.35
2023-04-08T21:09:29.005Z,21.17
2023-04-08T21:11:56.387Z,24.63
2023-04-08T21:14:23.562Z,20.75
2023-04-08T21:16:50.544Z,21.77
2023-04-08T21:19:17.736Z,21.92
2023-04-08T21:21:46.271Z,22.40
2023-04-08T21:24:13.440Z,21.00
2023-04-08T21:26:40.669Z,22.20
2023-04-08T21:29:07.607Z,23.42
2023-04-08T21:31:36.014Z,21.58
2023-04-08T21:34:03.530Z,20.92
2023-04-08T21:36:31.467Z,22.30
2023-04-08T21:38:58.458Z,21.60
2023-04-08T21:41:25.420Z,19.92
2023-04-08T21:43:53.836Z,22.50
2023-04-08T21:46:21.783Z,22.27
2023-04-08T21:48:48.765Z,22.90
2023-04-08T21:51:20.076Z,23.30
2023-04-08T21:53:48.854Z,22.20
2023-04-08T21:56:17.471Z,23.02
2023-04-08T21:58:44.396Z,22.20
2023-04-08T22:01:11.489Z,23.30
2023-04-08T22:03:38.571Z,22.90
2023-04-08T22:06:10.939Z,21.88
2023-04-08T22:08:39.824Z,27.75
2023-04-08T22:11:08.975Z,23.90
2023-04-08T22:13:36.069Z,25.05
2023-04-08T22:16:03.273Z,28.25
2023-04-08T22:18:30.607Z,24.88
2023-04-08T22:20:57.620Z,26.02
2023-04-08T22:23:24.545Z,29.55
2023-04-08T22:25:51.613Z,28.65
2023-04-08T22:28:18.686Z,30.40
2023-04-08T22:30:46.120Z,29.88
2023-04-08T22:33:13.174Z,31.35
2023-04-08T22:35:40.612Z,30.45
2023-04-08T22:38:07.599Z,36.63
2023-04-08T22:40:37.820Z,33.10
2023-04-08T22:43:04.840Z,30.27
2023-04-08T22:45:31.935Z,34.67
2023-04-08T22:47:59.815Z,35.20
2023-04-08T22:50:26.880Z,33.72
2023-04-08T22:52:55.206Z,33.28
2023-04-08T22:55:22.888Z,33.42
2023-04-08T22:57:49.892Z,33.72
2023-04-08T23:00:17.067Z,40.33
2023-04-08T23:02:44.159Z,41.90
2023-04-08T23:05:12.673Z,43.63
2023-04-08T23:07:39.663Z,41.28
2023-04-08T23:10:08.409Z,38.85
2023-04-08T23:12:36.230Z,38.17
2023-04-08T23:15:04.501Z,36.28
2023-04-08T23:17:33.360Z,36.28
2023-04-08T23:20:00.937Z,37.00
2023-04-08T23:22:27.900Z,33.25
2023-04-08T23:24:54.896Z,31.60
2023-04-08T23:27:24.166Z,36.42
2023-04-08T23:29:52.063Z,30.13
2023-04-08T23:32:20.189Z,34.05
2023-04-08T23:34:47.185Z,31.48
2023-04-08T23:37:14.164Z,35.17
2023-04-08T23:39:41.290Z,27.75
2023-04-08T23:42:08.241Z,32.28
2023-04-08T23:44:35.497Z,30.38
2023-04-08T23:47:03.153Z,26.05
2023-04-08T23:49:31.197Z,25.85
2023-04-08T23:51:58.327Z,25.52
2023-04-08T23:54:25.357Z,27.63
2023-04-08T23:56:52.323Z,27.30
2023-04-08T23:59:19.294Z,23.30
